Time;durP1;ratioP1;P1;durP2;ratioP2;P2;SDS_P1;SDS_P2;PMS_P1;PMS_P2;Temp;Humidity;BMP_temperature;BMP_pressure;BME280_temperature;BME280_humidity;BME280_pressure;Samples;Min_cycle;Max_cycle;Signal;HPM_P1;HPM_P2
2023/01/01 00:00:36;;;;;;;13.93;8.45;;;;;;;;;;4991168;28;20207;-76
2023/01/01 00:03:02;;;;;;;17.13;8.93;;;;;;;;;;4993317;28;20176;-76
2023/01/01 00:05:27;;;;;;;13.32;7.93;;;;;;;;;;4993754;28;20182;-76
2023/01/01 00:07:52;;;;;;;13.85;7.47;;;;;;;;;;5004212;28;20179;-76
2023/01/01 00:10:26;;;;;;;13.80;8.93;;;;;;;;;;4987915;28;20211;-76
2023/01/01 00:12:52;;;;;;;13.45;9.02;;;;;;;;;;4987314;28;20254;-76
2023/01/01 00:15:17;;;;;;;21.90;9.68;;;;;;;;;;4987805;28;20282;-75
2023/01/01 00:17:42;;;;;;;20.88;9.45;;;;;;;;;;4992118;28;20179;-76
2023/01/01 00:20:08;;;;;;;15.88;10.65;;;;;;;;;;4989347;28;20219;-75
2023/01/01 00:22:33;;;;;;;18.48;10.27;;;;;;;;;;5028038;22;20286;-73
2023/01/01 00:24:58;;;;;;;17.50;8.77;;;;;;;;;;5030871;28;20650;-72
2023/01/01 00:27:23;;;;;;;13.45;8.77;;;;;;;;;;5030584;28;20178;-72
2023/01/01 00:29:49;;;;;;;12.93;8.05;;;;;;;;;;5030965;28;20491;-72
2023/01/01 00:32:14;;;;;;;14.70;7.53;;;;;;;;;;5015898;28;20321;-70
2023/01/01 00:34:39;;;;;;;16.83;7.70;;;;;;;;;;5006234;28;20175;-71
2023/01/01 00:37:04;;;;;;;10.52;5.50;;;;;;;;;;5003644;28;20258;-72
2023/01/01 00:39:29;;;;;;;13.50;5.10;;;;;;;;;;5008920;28;20183;-71
2023/01/01 00:41:55;;;;;;;11.52;5.93;;;;;;;;;;5005128;28;20195;-72
2023/01/01 00:44:20;;;;;;;13.18;5.30;;;;;;;;;;5010685;28;20214;-72
2023/01/01 00:46:45;;;;;;;14.75;5.82;;;;;;;;;;5010938;28;20253;-71
2023/01/01 00:49:10;;;;;;;9.95;4.40;;;;;;;;;;5006440;28;20175;-72
2023/01/01 00:51:35;;;;;;;12.02;4.63;;;;;;;;;;5001621;28;20280;-72
2023/01/01 00:54:01;;;;;;;11.50;4.55;;;;;;;;;;5008304;28;20174;-72
2023/01/01 00:56:26;;;;;;;11.45;5.40;;;;;;;;;;5010898;28;20211;-72
2023/01/01 00:58:51;;;;;;;17.90;4.57;;;;;;;;;;5009105;28;20722;-71
2023/01/01 01:01:16;;;;;;;10.27;4.07;;;;;;;;;;5010197;28;20367;-71
2023/01/01 01:03:41;;;;;;;8.85;4.13;;;;;;;;;;5003944;28;20198;-71
2023/01/01 01:06:11;;;;;;;12.52;4.05;;;;;;;;;;5009228;28;20653;-71
2023/01/01 01:08:37;;;;;;;10.18;3.70;;;;;;;;;;5003784;28;20305;-72
2023/01/01 01:11:32;;;;;;;10.15;3.80;;;;;;;;;;5005918;28;20253;-72
2023/01/01 01:13:57;;;;;;;10.38;3.20;;;;;;;;;;4998646;28;20561;-71
2023/01/01 01:16:26;;;;;;;12.80;3.15;;;;;;;;;;4998792;28;20175;-71
2023/01/01 01:18:53;;;;;;;10.88;3.55;;;;;;;;;;5006413;28;20668;-72
2023/01/01 01:21:19;;;;;;;10.70;3.60;;;;;;;;;;5001387;28;20183;-73
2023/01/01 01:23:44;;;;;;;9.77;2.88;;;;;;;;;;4997001;28;20195;-72
2023/01/01 01:26:11;;;;;;;6.15;2.55;;;;;;;;;;5002052;28;20713;-72
2023/01/01 01:28:37;;;;;;;12.23;3.50;;;;;;;;;;5005795;28;20183;-72
2023/01/01 01:31:02;;;;;;;10.30;3.42;;;;;;;;;;5008438;28;20555;-72
2023/01/01 01:33:27;;;;;;;11.88;4.25;;;;;;;;;;5012389;28;20256;-72
2023/01/01 01:35:52;;;;;;;10.82;3.13;;;;;;;;;;5010507;28;20233;-72
2023/01/01 01:38:17;;;;;;;9.18;3.67;;;;;;;;;;5009657;28;20538;-72
2023/01/01 01:40:43;;;;;;;8.55;2.20;;;;;;;;;;5008512;28;20709;-72
2023/01/01 01:43:19;;;;;;;7.78;2.75;;;;;;;;;;5006434;28;20207;-72
2023/01/01 01:45:44;;;;;;;5.78;2.33;;;;;;;;;;5002178;28;20179;-73
2023/01/01 01:48:10;;;;;;;5.88;2.75;;;;;;;;;;5012734;28;20178;-72
2023/01/01 01:50:37;;;;;;;8.77;2.30;;;;;;;;;;5010227;28;20265;-73
2023/01/01 01:53:08;;;;;;;6.95;2.60;;;;;;;;;;5010348;28;20262;-72
2023/01/01 01:55:38;;;;;;;9.77;2.75;;;;;;;;;;5000579;28;20233;-72
2023/01/01 01:58:04;;;;;;;6.35;2.40;;;;;;;;;;5007230;28;20183;-72
2023/01/01 02:00:30;;;;;;;4.68;1.90;;;;;;;;;;5001724;28;20203;-72
2023/01/01 02:02:57;;;;;;;7.53;2.58;;;;;;;;;;5013171;28;20229;-72
2023/01/01 02:05:22;;;;;;;5.28;2.17;;;;;;;;;;5013970;28;20183;-72
2023/01/01 02:07:48;;;;;;;8.13;2.88;;;;;;;;;;5013824;28;20234;-72
2023/01/01 02:10:13;;;;;;;7.25;2.78;;;;;;;;;;5012024;28;20206;-73
2023/01/01 02:12:39;;;;;;;3.35;2.10;;;;;;;;;;5001109;28;20187;-72
2023/01/01 02:15:04;;;;;;;4.10;2.00;;;;;;;;;;5011175;28;20183;-72
2023/01/01 02:17:35;;;;;;;6.28;2.58;;;;;;;;;;5008912;28;20175;-73
2023/01/01 02:20:00;;;;;;;7.90;2.05;;;;;;;;;;5011317;28;20255;-72
2023/01/01 02:23:03;;;;;;;4.80;1.55;;;;;;;;;;5012634;28;20218;-72
2023/01/01 02:25:44;;;;;;;10.02;2.28;;;;;;;;;;4991562;28;20187;-72
2023/01/01 02:28:19;;;;;;;6.05;2.00;;;;;;;;;;4992813;28;20481;-72
2023/01/01 02:30:45;;;;;;;8.82;2.30;;;;;;;;;;5001083;28;20252;-72
2023/01/01 02:33:13;;;;;;;5.47;2.20;;;;;;;;;;5008626;28;20187;-72
2023/01/01 02:35:45;;;;;;;7.47;2.47;;;;;;;;;;5009194;28;20172;-73
2023/01/01 02:38:14;;;;;;;5.30;1.75;;;;;;;;;;5013533;28;20175;-72
2023/01/01 02:40:41;;;;;;;5.80;2.00;;;;;;;;;;5011182;28;20873;-73
2023/01/01 02:43:07;;;;;;;3.80;1.70;;;;;;;;;;5009950;28;20201;-73
2023/01/01 02:45:32;;;;;;;7.75;2.95;;;;;;;;;;5004130;28;20264;-73
2023/01/01 02:48:01;;;;;;;4.75;2.08;;;;;;;;;;5011344;28;20241;-72
2023/01/01 02:50:27;;;;;;;5.80;2.13;;;;;;;;;;4999039;28;20214;-73
2023/01/01 02:53:11;;;;;;;6.45;2.13;;;;;;;;;;5010783;28;20199;-72
2023/01/01 02:55:59;;;;;;;12.38;2.60;;;;;;;;;;5010642;28;20393;-72
2023/01/01 03:01:40;;;;;;;6.30;1.80;;;;;;;;;;5006694;28;20232;-73
2023/01/01 03:04:14;;;;;;;9.80;2.38;;;;;;;;;;5014565;28;20212;-72
2023/01/01 03:06:43;;;;;;;8.85;1.80;;;;;;;;;;5012315;28;20179;-72
2023/01/01 03:09:20;;;;;;;4.60;1.50;;;;;;;;;;5013324;28;20171;-72
2023/01/01 03:11:49;;;;;;;3.22;1.67;;;;;;;;;;5005995;28;20202;-72
2023/01/01 03:14:40;;;;;;;6.18;1.92;;;;;;;;;;5016309;28;20167;-72
2023/01/01 03:17:08;;;;;;;4.88;1.52;;;;;;;;;;4989033;28;20562;-72
2023/01/01 03:19:36;;;;;;;6.43;1.83;;;;;;;;;;5003282;28;20178;-73
2023/01/01 03:22:06;;;;;;;8.98;1.95;;;;;;;;;;5006152;28;20260;-72
2023/01/01 03:24:33;;;;;;;5.78;1.65;;;;;;;;;;5011438;28;20689;-72
2023/01/01 03:27:04;;;;;;;8.80;2.10;;;;;;;;;;5008946;28;20636;-72
2023/01/01 03:29:32;;;;;;;2.47;1.75;;;;;;;;;;5003101;28;20317;-72
2023/01/01 03:31:58;;;;;;;10.93;2.08;;;;;;;;;;5011332;28;20295;-72
2023/01/01 03:34:30;;;;;;;7.78;1.92;;;;;;;;;;5008560;28;20538;-73
2023/01/01 03:36:56;;;;;;;7.28;1.73;;;;;;;;;;5002119;28;20180;-72
2023/01/01 03:39:23;;;;;;;6.95;2.05;;;;;;;;;;5009779;28;20180;-72
2023/01/01 03:41:57;;;;;;;4.20;1.92;;;;;;;;;;5011467;28;20245;-72
2023/01/01 03:44:25;;;;;;;6.65;1.77;;;;;;;;;;5008410;28;20202;-72
2023/01/01 03:46:50;;;;;;;6.53;1.83;;;;;;;;;;4993098;28;20183;-73
2023/01/01 03:49:15;;;;;;;8.18;1.90;;;;;;;;;;5011352;28;20174;-72
2023/01/01 03:51:56;;;;;;;8.75;2.25;;;;;;;;;;5008203;28;20238;-72
2023/01/01 03:54:40;;;;;;;7.88;2.60;;;;;;;;;;5011578;28;20277;-72
2023/01/01 03:57:10;;;;;;;4.60;1.98;;;;;;;;;;5008971;28;20183;-72
2023/01/01 03:59:39;;;;;;;6.80;1.50;;;;;;;;;;5002487;28;20179;-73
2023/01/01 04:02:07;;;;;;;9.60;2.65;;;;;;;;;;5005716;28;20199;-72
2023/01/01 04:04:33;;;;;;;8.85;2.28;;;;;;;;;;5011830;28;20291;-72
2023/01/01 04:06:58;;;;;;;7.45;2.17;;;;;;;;;;5011827;28;20190;-72
2023/01/01 04:09:27;;;;;;;6.88;2.65;;;;;;;;;;5011594;28;20187;-72
2023/01/01 04:12:06;;;;;;;6.88;2.25;;;;;;;;;;5010658;28;20207;-73
2023/01/01 04:14:40;;;;;;;6.40;2.08;;;;;;;;;;5011887;28;20640;-72
2023/01/01 04:17:06;;;;;;;6.32;2.20;;;;;;;;;;5010366;28;20209;-72
2023/01/01 04:19:32;;;;;;;10.60;3.35;;;;;;;;;;5010359;28;20187;-72
2023/01/01 04:21:57;;;;;;;3.95;2.10;;;;;;;;;;5010675;28;20202;-72
2023/01/01 04:24:22;;;;;;;10.57;2.25;;;;;;;;;;5011282;28;20232;-72
2023/01/01 04:26:48;;;;;;;7.55;2.30;;;;;;;;;;5011377;28;20175;-73
2023/01/01 04:29:13;;;;;;;8.98;2.55;;;;;;;;;;5011303;28;20171;-73
2023/01/01 04:31:39;;;;;;;5.80;2.03;;;;;;;;;;5002658;28;20206;-72
2023/01/01 04:34:04;;;;;;;11.27;2.80;;;;;;;;;;5010922;28;20170;-72
2023/01/01 04:36:29;;;;;;;6.10;2.30;;;;;;;;;;5010441;28;20175;-73
2023/01/01 04:38:54;;;;;;;5.80;2.28;;;;;;;;;;5005676;28;20644;-72
2023/01/01 04:41:19;;;;;;;8.13;2.08;;;;;;;;;;5009180;28;20269;-72
2023/01/01 04:43:51;;;;;;;8.32;2.20;;;;;;;;;;5010140;28;20183;-72
2023/01/01 04:46:19;;;;;;;5.90;1.77;;;;;;;;;;5009592;28;20220;-72
2023/01/01 04:48:45;;;;;;;9.10;2.75;;;;;;;;;;5009313;28;20554;-72
2023/01/01 04:51:10;;;;;;;6.90;2.47;;;;;;;;;;5009901;28;20198;-72
2023/01/01 04:53:36;;;;;;;5.88;2.30;;;;;;;;;;5000401;28;20260;-72
2023/01/01 04:56:05;;;;;;;8.32;1.95;;;;;;;;;;5003623;28;20186;-72
2023/01/01 04:58:30;;;;;;;6.85;2.22;;;;;;;;;;5000762;28;20182;-72
2023/01/01 05:00:55;;;;;;;11.27;2.03;;;;;;;;;;5001679;28;20179;-72
2023/01/01 05:03:21;;;;;;;3.78;1.52;;;;;;;;;;5005248;28;20578;-72
2023/01/01 05:05:47;;;;;;;5.38;1.83;;;;;;;;;;5005963;28;20715;-72
2023/01/01 05:08:12;;;;;;;6.85;1.77;;;;;;;;;;5015158;28;20629;-73
2023/01/01 05:10:37;;;;;;;5.97;1.98;;;;;;;;;;5014857;28;20206;-72
2023/01/01 05:13:05;;;;;;;4.03;1.30;;;;;;;;;;5014369;28;20268;-72
2023/01/01 05:15:30;;;;;;;5.35;1.25;;;;;;;;;;5014030;28;20179;-72
2023/01/01 05:17:55;;;;;;;4.53;1.48;;;;;;;;;;5008956;28;20172;-72
2023/01/01 05:20:20;;;;;;;4.35;1.40;;;;;;;;;;5004326;28;20183;-72
2023/01/01 05:22:46;;;;;;;4.03;1.30;;;;;;;;;;5010561;28;20673;-72
2023/01/01 05:25:11;;;;;;;4.57;1.65;;;;;;;;;;5011545;28;20178;-72
2023/01/01 05:27:36;;;;;;;2.65;1.35;;;;;;;;;;5006573;28;20284;-72
2023/01/01 05:30:02;;;;;;;9.90;1.75;;;;;;;;;;5011178;28;20233;-72
2023/01/01 05:32:27;;;;;;;3.58;1.25;;;;;;;;;;5005196;28;20454;-72
2023/01/01 05:34:53;;;;;;;5.70;1.30;;;;;;;;;;5009478;28;20194;-72
2023/01/01 05:37:18;;;;;;;3.85;1.20;;;;;;;;;;5009152;28;20186;-73
2023/01/01 05:39:43;;;;;;;3.28;1.13;;;;;;;;;;5004752;28;20191;-72
2023/01/01 05:42:09;;;;;;;2.53;0.95;;;;;;;;;;5003312;28;20564;-72
2023/01/01 05:44:34;;;;;;;4.57;1.50;;;;;;;;;;5009696;28;20183;-72
2023/01/01 05:46:59;;;;;;;3.38;0.98;;;;;;;;;;5002918;28;20187;-73
2023/01/01 05:49:25;;;;;;;3.75;1.00;;;;;;;;;;5000423;28;20186;-72
2023/01/01 05:51:50;;;;;;;3.55;0.82;;;;;;;;;;5005711;28;20207;-72
2023/01/01 05:54:15;;;;;;;3.97;0.85;;;;;;;;;;5013511;28;20171;-72
2023/01/01 05:56:40;;;;;;;2.75;1.02;;;;;;;;;;5005917;28;20171;-72
2023/01/01 05:59:05;;;;;;;6.75;1.05;;;;;;;;;;5004408;28;20241;-72
2023/01/01 06:01:31;;;;;;;4.75;1.05;;;;;;;;;;5000313;28;20215;-72
2023/01/01 06:03:57;;;;;;;3.78;0.95;;;;;;;;;;5009848;28;20183;-72
2023/01/01 06:06:24;;;;;;;5.78;1.00;;;;;;;;;;5005320;28;20178;-72
2023/01/01 06:08:52;;;;;;;4.53;0.73;;;;;;;;;;5007346;28;20561;-72
2023/01/01 06:11:18;;;;;;;4.28;1.13;;;;;;;;;;5012235;28;20293;-72
2023/01/01 06:13:43;;;;;;;4.35;1.25;;;;;;;;;;5007121;28;20609;-72
2023/01/01 06:16:09;;;;;;;5.32;0.80;;;;;;;;;;5007189;28;20717;-72
2023/01/01 06:18:34;;;;;;;5.88;1.42;;;;;;;;;;5003945;28;20193;-73
2023/01/01 06:21:03;;;;;;;5.13;1.10;;;;;;;;;;5006329;28;20245;-73
2023/01/01 06:23:28;;;;;;;5.25;1.23;;;;;;;;;;5018379;23;20289;-78
2023/01/01 06:25:53;;;;;;;2.38;0.95;;;;;;;;;;5011723;28;20433;-78
2023/01/01 06:28:19;;;;;;;4.38;1.42;;;;;;;;;;5010537;28;20182;-77
2023/01/01 06:30:44;;;;;;;3.25;1.02;;;;;;;;;;5010975;28;20293;-78
2023/01/01 06:33:09;;;;;;;4.53;1.65;;;;;;;;;;5005335;28;20187;-77
2023/01/01 06:35:34;;;;;;;3.97;0.57;;;;;;;;;;5009907;28;20603;-77
2023/01/01 06:37:59;;;;;;;2.25;0.60;;;;;;;;;;5001124;28;20186;-77
2023/01/01 06:40:25;;;;;;;3.97;0.73;;;;;;;;;;5008025;28;20175;-78
2023/01/01 06:42:50;;;;;;;4.88;1.25;;;;;;;;;;5012256;28;20198;-77
2023/01/01 06:45:15;;;;;;;2.88;1.23;;;;;;;;;;5011320;28;20215;-77
2023/01/01 06:47:40;;;;;;;1.77;0.73;;;;;;;;;;5006226;28;20649;-77
2023/01/01 06:50:06;;;;;;;1.48;0.57;;;;;;;;;;5009951;28;20773;-77
2023/01/01 06:52:31;;;;;;;2.38;0.80;;;;;;;;;;5003916;28;20199;-77
2023/01/01 06:54:56;;;;;;;3.00;0.73;;;;;;;;;;5001489;28;20171;-78
2023/01/01 06:57:22;;;;;;;1.27;0.77;;;;;;;;;;5011427;28;20202;-77
2023/01/01 06:59:47;;;;;;;12.25;2.05;;;;;;;;;;5004131;28;20569;-77
2023/01/01 07:02:13;;;;;;;5.07;0.82;;;;;;;;;;5007812;28;20218;-77
2023/01/01 07:04:38;;;;;;;2.83;0.88;;;;;;;;;;5012983;28;20175;-77
2023/01/01 07:07:03;;;;;;;3.10;1.15;;;;;;;;;;5003461;28;20178;-77
2023/01/01 07:09:28;;;;;;;6.05;0.77;;;;;;;;;;5011235;28;20175;-78
2023/01/01 07:11:54;;;;;;;5.15;0.82;;;;;;;;;;5007316;28;20213;-77
2023/01/01 07:14:19;;;;;;;3.20;0.73;;;;;;;;;;5016085;28;20178;-77
2023/01/01 07:16:44;;;;;;;5.25;0.98;;;;;;;;;;5011225;28;20577;-78
2023/01/01 07:19:09;;;;;;;8.77;2.28;;;;;;;;;;5015334;28;20740;-78
2023/01/01 07:21:42;;;;;;;2.55;1.00;;;;;;;;;;5013201;28;20186;-80
2023/01/01 07:24:09;;;;;;;3.28;0.80;;;;;;;;;;5012421;28;20568;-79
2023/01/01 07:26:34;;;;;;;4.07;0.98;;;;;;;;;;5012981;28;20224;-78
2023/01/01 07:28:59;;;;;;;16.63;2.25;;;;;;;;;;5009785;28;20203;-78
2023/01/01 07:31:25;;;;;;;5.63;0.70;;;;;;;;;;5011347;28;20206;-78
2023/01/01 07:33:50;;;;;;;5.30;0.75;;;;;;;;;;5014495;28;20233;-78
2023/01/01 07:36:15;;;;;;;6.18;1.40;;;;;;;;;;5020495;28;20171;-78
2023/01/01 07:38:40;;;;;;;5.13;0.73;;;;;;;;;;5012656;28;20172;-78
2023/01/01 07:41:06;;;;;;;5.38;1.20;;;;;;;;;;5010287;28;20186;-78
2023/01/01 07:43:31;;;;;;;17.77;1.67;;;;;;;;;;5012285;28;20195;-78
2023/01/01 07:45:57;;;;;;;6.25;1.38;;;;;;;;;;5017870;28;20213;-78
2023/01/01 07:48:22;;;;;;;3.97;0.83;;;;;;;;;;5018978;28;20236;-77
2023/01/01 07:50:47;;;;;;;2.97;1.02;;;;;;;;;;5008748;28;20214;-78
2023/01/01 07:53:13;;;;;;;5.85;1.10;;;;;;;;;;5008107;28;20573;-77
2023/01/01 07:55:38;;;;;;;4.37;1.00;;;;;;;;;;5006480;28;20214;-78
2023/01/01 07:58:03;;;;;;;3.67;0.95;;;;;;;;;;5007080;28;20237;-79
2023/01/01 08:00:28;;;;;;;3.25;0.80;;;;;;;;;;5018534;28;20614;-78
2023/01/01 08:02:54;;;;;;;4.97;1.10;;;;;;;;;;5018061;28;20227;-79
2023/01/01 08:05:19;;;;;;;3.33;1.15;;;;;;;;;;5010939;28;20179;-78
2023/01/01 08:07:48;;;;;;;9.10;3.80;;;;;;;;;;5011602;28;20171;-78
2023/01/01 08:10:13;;;;;;;2.17;0.83;;;;;;;;;;5012007;28;20230;-78
2023/01/01 08:12:38;;;;;;;9.40;1.15;;;;;;;;;;5009589;28;20564;-78
2023/01/01 08:15:04;;;;;;;3.57;0.87;;;;;;;;;;5010176;28;20186;-78
2023/01/01 08:17:29;;;;;;;5.93;0.93;;;;;;;;;;5007403;28;20181;-78
2023/01/01 08:19:54;;;;;;;3.85;1.63;;;;;;;;;;5004437;28;20175;-79
2023/01/01 08:22:20;;;;;;;2.53;0.88;;;;;;;;;;5003915;28;20226;-78
2023/01/01 08:24:45;;;;;;;5.35;1.27;;;;;;;;;;5008932;28;20171;-79
2023/01/01 08:27:14;;;;;;;6.07;1.50;;;;;;;;;;5006571;28;20166;-79
2023/01/01 08:29:39;;;;;;;4.87;1.20;;;;;;;;;;5005563;28;20183;-79
2023/01/01 08:32:04;;;;;;;5.60;1.20;;;;;;;;;;5007513;28;20213;-78
2023/01/01 08:34:30;;;;;;;6.10;1.53;;;;;;;;;;5010588;28;20527;-79
2023/01/01 08:36:55;;;;;;;5.70;1.57;;;;;;;;;;5011527;28;20253;-79
2023/01/01 08:39:20;;;;;;;6.32;1.45;;;;;;;;;;5009869;28;20178;-79
2023/01/01 08:41:45;;;;;;;5.97;1.20;;;;;;;;;;5007227;28;20217;-79
2023/01/01 08:44:10;;;;;;;6.00;2.10;;;;;;;;;;5009773;28;20205;-78
2023/01/01 08:46:36;;;;;;;4.87;1.20;;;;;;;;;;5026473;28;20550;-78
2023/01/01 08:49:01;;;;;;;4.57;1.00;;;;;;;;;;5011741;28;20198;-78
2023/01/01 08:51:26;;;;;;;5.75;1.42;;;;;;;;;;5008700;28;20204;-78
2023/01/01 08:53:51;;;;;;;6.30;1.63;;;;;;;;;;4998838;28;20210;-78
2023/01/01 08:56:17;;;;;;;7.50;1.17;;;;;;;;;;5002754;28;20195;-79
2023/01/01 08:58:42;;;;;;;6.87;1.77;;;;;;;;;;5007223;28;20191;-78
2023/01/01 09:01:08;;;;;;;3.70;1.48;;;;;;;;;;5021836;28;20232;-78
2023/01/01 09:03:33;;;;;;;7.00;2.03;;;;;;;;;;5014707;28;20294;-78
2023/01/01 09:05:59;;;;;;;3.27;1.27;;;;;;;;;;5011411;28;20187;-78
2023/01/01 09:08:24;;;;;;;3.22;0.98;;;;;;;;;;5011182;28;20277;-78
2023/01/01 09:10:50;;;;;;;3.75;1.70;;;;;;;;;;5008614;28;20282;-79
2023/01/01 09:13:16;;;;;;;9.15;1.30;;;;;;;;;;5009371;28;20202;-79
2023/01/01 09:15:42;;;;;;;5.63;1.13;;;;;;;;;;5022056;28;20212;-80
2023/01/01 09:18:07;;;;;;;7.22;1.95;;;;;;;;;;5013931;28;20175;-79
2023/01/01 09:20:32;;;;;;;6.68;1.33;;;;;;;;;;5010182;28;20183;-79
2023/01/01 09:22:58;;;;;;;7.77;1.40;;;;;;;;;;5005936;28;20222;-79
2023/01/01 09:25:23;;;;;;;5.88;0.88;;;;;;;;;;5006063;28;20186;-80
2023/01/01 09:27:48;;;;;;;6.38;1.42;;;;;;;;;;5010385;28;20652;-80
2023/01/01 09:30:14;;;;;;;7.95;1.40;;;;;;;;;;5005293;28;20190;-79
2023/01/01 09:32:39;;;;;;;6.20;1.02;;;;;;;;;;5015915;28;20194;-79
2023/01/01 09:35:04;;;;;;;6.45;1.20;;;;;;;;;;5010893;28;20183;-79
2023/01/01 09:37:30;;;;;;;18.58;5.65;;;;;;;;;;5008605;28;20699;-79
2023/01/01 09:39:55;;;;;;;7.63;1.63;;;;;;;;;;5008928;28;20182;-79
2023/01/01 09:42:46;;;;;;;4.50;1.10;;;;;;;;;;5009224;28;20676;-79
2023/01/01 09:45:15;;;;;;;4.63;1.20;;;;;;;;;;5013058;28;20221;-77
2023/01/01 09:47:42;;;;;;;6.00;1.25;;;;;;;;;;5016292;28;20207;-79
2023/01/01 09:50:12;;;;;;;5.97;1.15;;;;;;;;;;5001706;28;20180;-77
2023/01/01 09:52:56;;;;;;;3.75;1.50;;;;;;;;;;5011578;28;20213;-79
2023/01/01 09:55:33;;;;;;;6.43;1.20;;;;;;;;;;5012875;28;20237;-79
2023/01/01 09:57:58;;;;;;;5.25;1.25;;;;;;;;;;5014563;28;20175;-79
2023/01/01 10:00:23;;;;;;;8.05;1.20;;;;;;;;;;5014097;28;20179;-79
2023/01/01 10:02:54;;;;;;;11.25;1.77;;;;;;;;;;5016911;28;20200;-79
2023/01/01 10:05:25;;;;;;;9.75;1.30;;;;;;;;;;5013784;28;20237;-79
2023/01/01 10:08:05;;;;;;;9.35;2.28;;;;;;;;;;5024294;28;20707;-78
2023/01/01 10:10:43;;;;;;;5.18;1.70;;;;;;;;;;5013954;28;20205;-79
2023/01/01 10:13:11;;;;;;;6.18;1.52;;;;;;;;;;5013818;28;20206;-79
2023/01/01 10:15:38;;;;;;;5.93;1.38;;;;;;;;;;5006822;28;20174;-80
2023/01/01 10:18:07;;;;;;;4.50;1.92;;;;;;;;;;5010051;28;20194;-77
2023/01/01 10:20:37;;;;;;;7.40;2.05;;;;;;;;;;5012041;28;20187;-78
2023/01/01 10:23:10;;;;;;;3.25;1.00;;;;;;;;;;5012843;28;20308;-78
2023/01/01 10:25:38;;;;;;;4.60;1.20;;;;;;;;;;5005325;28;20190;-78
2023/01/01 10:28:12;;;;;;;4.05;1.30;;;;;;;;;;5003238;28;20184;-78
2023/01/01 10:30:38;;;;;;;7.22;1.95;;;;;;;;;;5012045;28;20309;-78
2023/01/01 10:33:07;;;;;;;6.07;1.77;;;;;;;;;;5008005;28;20684;-78
2023/01/01 10:35:34;;;;;;;12.10;1.90;;;;;;;;;;5012219;28;20183;-78
2023/01/01 10:37:59;;;;;;;6.40;3.88;;;;;;;;;;5007245;28;20171;-77
2023/01/01 10:40:25;;;;;;;7.80;1.63;;;;;;;;;;5010604;28;20229;-78
2023/01/01 10:42:52;;;;;;;9.07;1.83;;;;;;;;;;5004658;28;20198;-77
2023/01/01 10:45:19;;;;;;;11.32;1.77;;;;;;;;;;5014100;28;20183;-78
2023/01/01 10:48:03;;;;;;;9.25;1.60;;;;;;;;;;5012511;28;20179;-77
2023/01/01 10:50:47;;;;;;;3.45;1.25;;;;;;;;;;5016601;28;20210;-74
2023/01/01 10:53:19;;;;;;;4.40;2.10;;;;;;;;;;4997212;28;20275;-74
2023/01/01 10:56:05;;;;;;;4.63;1.92;;;;;;;;;;5009976;28;20657;-69
2023/01/01 10:58:30;;;;;;;4.47;1.20;;;;;;;;;;5002322;28;20207;-75
2023/01/01 11:00:59;;;;;;;5.20;1.52;;;;;;;;;;5010223;28;20288;-75
2023/01/01 11:03:24;;;;;;;6.28;1.60;;;;;;;;;;5017943;28;20683;-75
2023/01/01 11:05:59;;;;;;;3.70;1.85;;;;;;;;;;5012296;28;20175;-75
2023/01/01 11:08:25;;;;;;;6.32;1.52;;;;;;;;;;5006841;28;20197;-75
2023/01/01 11:10:50;;;;;;;6.88;1.40;;;;;;;;;;5000213;28;20204;-78
2023/01/01 11:13:19;;;;;;;5.90;1.85;;;;;;;;;;5008891;28;20239;-78
2023/01/01 11:15:45;;;;;;;6.82;1.98;;;;;;;;;;5008093;28;20656;-78
2023/01/01 11:18:21;;;;;;;5.00;2.45;;;;;;;;;;5011421;28;20283;-78
2023/01/01 11:20:53;;;;;;;4.57;1.83;;;;;;;;;;5012119;28;20652;-77
2023/01/01 11:23:18;;;;;;;5.93;2.00;;;;;;;;;;5012354;28;20258;-81
2023/01/01 11:26:16;;;;;;;3.28;1.75;;;;;;;;;;5007558;28;20611;-80
2023/01/01 11:28:41;;;;;;;9.02;2.65;;;;;;;;;;4985028;28;20187;-80
2023/01/01 11:31:12;;;;;;;6.28;2.17;;;;;;;;;;5009802;28;20690;-80
2023/01/01 11:33:54;;;;;;;6.38;2.05;;;;;;;;;;5013495;28;20209;-80
2023/01/01 11:36:20;;;;;;;6.82;1.85;;;;;;;;;;5013002;28;20201;-78
2023/01/01 11:38:47;;;;;;;8.73;2.60;;;;;;;;;;4997944;28;20182;-79
2023/01/01 11:41:12;;;;;;;6.30;2.03;;;;;;;;;;5009731;28;20545;-78
2023/01/01 11:43:44;;;;;;;10.13;3.58;;;;;;;;;;5013102;28;20199;-79
2023/01/01 11:46:10;;;;;;;7.93;2.13;;;;;;;;;;5020110;28;20657;-79
2023/01/01 11:48:39;;;;;;;7.10;2.95;;;;;;;;;;5000223;28;20215;-79
2023/01/01 11:51:06;;;;;;;9.18;2.30;;;;;;;;;;5009970;28;20210;-78
2023/01/01 11:53:33;;;;;;;7.78;2.67;;;;;;;;;;4998621;28;20609;-79
2023/01/01 11:56:13;;;;;;;9.43;2.67;;;;;;;;;;5012278;28;20757;-80
2023/01/01 11:59:05;;;;;;;7.05;3.10;;;;;;;;;;5012486;28;20174;-79
2023/01/01 12:01:39;;;;;;;8.68;2.70;;;;;;;;;;5024032;28;20190;-80
2023/01/01 12:04:18;;;;;;;8.98;3.65;;;;;;;;;;5010859;28;20217;-79
2023/01/01 12:06:43;;;;;;;7.57;3.42;;;;;;;;;;5010272;28;20178;-79
2023/01/01 12:09:14;;;;;;;5.38;1.95;;;;;;;;;;5011782;28;20179;-79
2023/01/01 12:11:42;;;;;;;9.05;2.58;;;;;;;;;;5010825;28;20199;-79
2023/01/01 12:14:16;;;;;;;9.15;2.58;;;;;;;;;;5012233;28;20267;-79
2023/01/01 12:16:49;;;;;;;6.57;1.98;;;;;;;;;;5010857;28;20170;-79
2023/01/01 12:19:33;;;;;;;8.60;2.38;;;;;;;;;;5011978;28;20181;-79
2023/01/01 12:21:59;;;;;;;3.80;1.65;;;;;;;;;;5010796;28;20233;-78
2023/01/01 12:24:29;;;;;;;7.95;1.83;;;;;;;;;;5003757;23;20228;-70
2023/01/01 12:26:54;;;;;;;8.43;2.38;;;;;;;;;;4983178;28;20236;-71
2023/01/01 12:29:22;;;;;;;8.70;2.05;;;;;;;;;;4986904;28;20176;-70
2023/01/01 12:31:54;;;;;;;9.40;2.72;;;;;;;;;;4988886;28;20239;-70
2023/01/01 12:34:24;;;;;;;8.95;2.22;;;;;;;;;;4996550;28;20192;-71
2023/01/01 12:36:52;;;;;;;7.90;2.42;;;;;;;;;;4988652;28;20180;-71
2023/01/01 12:39:36;;;;;;;7.72;2.13;;;;;;;;;;4982663;28;20669;-71
2023/01/01 12:42:20;;;;;;;8.38;1.88;;;;;;;;;;4984847;28;20190;-71
2023/01/01 12:44:48;;;;;;;10.48;2.75;;;;;;;;;;4995253;28;20171;-71
2023/01/01 12:47:13;;;;;;;8.23;2.10;;;;;;;;;;4990806;28;20729;-71
2023/01/01 12:49:48;;;;;;;6.75;2.00;;;;;;;;;;4984293;28;20275;-70
2023/01/01 12:52:21;;;;;;;11.55;2.90;;;;;;;;;;4986668;28;20221;-71
2023/01/01 12:54:57;;;;;;;4.72;1.70;;;;;;;;;;4982550;28;20176;-71
2023/01/01 12:57:30;;;;;;;6.20;1.88;;;;;;;;;;4989160;28;20206;-71
2023/01/01 12:59:56;;;;;;;9.40;2.00;;;;;;;;;;4986014;28;20176;-71
2023/01/01 13:02:22;;;;;;;12.50;2.60;;;;;;;;;;4987513;28;20282;-71
2023/01/01 13:04:50;;;;;;;8.10;1.55;;;;;;;;;;4987356;28;20183;-71
2023/01/01 13:07:20;;;;;;;8.50;1.83;;;;;;;;;;4984756;28;20206;-72
2023/01/01 13:09:47;;;;;;;10.88;2.05;;;;;;;;;;4988537;28;20179;-71
2023/01/01 13:12:17;;;;;;;8.75;2.00;;;;;;;;;;4979956;28;20234;-71
2023/01/01 13:14:43;;;;;;;6.10;1.90;;;;;;;;;;4983369;28;20259;-71
2023/01/01 13:17:25;;;;;;;10.20;2.75;;;;;;;;;;4991516;28;20672;-71
2023/01/01 13:19:58;;;;;;;5.75;1.80;;;;;;;;;;4989829;28;20179;-71
2023/01/01 13:22:26;;;;;;;8.93;2.05;;;;;;;;;;4996726;28;20180;-72
2023/01/01 13:25:09;;;;;;;6.50;1.67;;;;;;;;;;4986050;28;20234;-71
2023/01/01 13:27:53;;;;;;;14.20;2.78;;;;;;;;;;4983151;28;20267;-71
2023/01/01 13:30:34;;;;;;;7.15;1.90;;;;;;;;;;4986492;28;20179;-70
2023/01/01 13:33:22;;;;;;;9.25;3.38;;;;;;;;;;4992845;28;20207;-71
2023/01/01 13:36:08;;;;;;;8.35;2.80;;;;;;;;;;5000539;28;20172;-71
2023/01/01 13:38:45;;;;;;;6.70;1.85;;;;;;;;;;4988764;28;20262;-72
2023/01/01 13:41:35;;;;;;;9.57;2.28;;;;;;;;;;4990779;28;20176;-71
2023/01/01 13:44:01;;;;;;;6.18;2.15;;;;;;;;;;4985295;28;20200;-71
2023/01/01 13:46:50;;;;;;;10.85;2.60;;;;;;;;;;4993615;28;20313;-73
2023/01/01 13:49:18;;;;;;;8.82;1.98;;;;;;;;;;4994365;28;20184;-71
2023/01/01 13:51:50;;;;;;;10.45;2.00;;;;;;;;;;4992105;28;20673;-71
2023/01/01 13:54:28;;;;;;;9.23;2.95;;;;;;;;;;4984409;28;20238;-76
2023/01/01 13:56:57;;;;;;;7.90;2.38;;;;;;;;;;4991055;28;20191;-72
2023/01/01 13:59:22;;;;;;;10.20;2.50;;;;;;;;;;4988804;28;20184;-77
2023/01/01 14:02:10;;;;;;;4.50;2.42;;;;;;;;;;4999777;28;20183;-71
2023/01/01 14:04:59;;;;;;;8.23;2.08;;;;;;;;;;4960364;28;20208;-74
2023/01/01 14:07:34;;;;;;;10.40;2.50;;;;;;;;;;4965330;28;20207;-72
2023/01/01 14:10:28;;;;;;;8.95;2.63;;;;;;;;;;4985477;28;20543;-70
2023/01/01 14:12:56;;;;;;;11.80;2.60;;;;;;;;;;4973670;28;20211;-71
2023/01/01 14:15:21;;;;;;;8.48;2.33;;;;;;;;;;4986179;28;20253;-73
2023/01/01 14:17:47;;;;;;;10.43;2.90;;;;;;;;;;4991897;28;20656;-71
2023/01/01 14:20:14;;;;;;;11.30;2.67;;;;;;;;;;4991201;28;20204;-71
2023/01/01 14:22:42;;;;;;;13.32;3.90;;;;;;;;;;4999967;28;20203;-71
2023/01/01 14:25:12;;;;;;;11.35;4.13;;;;;;;;;;4994599;28;20211;-71
2023/01/01 14:27:38;;;;;;;15.98;4.68;;;;;;;;;;5005846;28;20182;-71
2023/01/01 14:30:03;;;;;;;17.27;6.63;;;;;;;;;;4994313;28;20184;-72
2023/01/01 14:32:31;;;;;;;13.45;3.25;;;;;;;;;;5000169;28;20195;-71
2023/01/01 14:34:59;;;;;;;11.65;3.70;;;;;;;;;;4993307;28;20179;-71
2023/01/01 14:37:24;;;;;;;9.77;2.30;;;;;;;;;;4984986;28;20259;-71
2023/01/01 14:40:08;;;;;;;13.38;4.43;;;;;;;;;;4984528;28;20256;-71
2023/01/01 14:42:34;;;;;;;9.25;2.25;;;;;;;;;;4990779;28;20678;-72
2023/01/01 14:44:59;;;;;;;8.20;2.40;;;;;;;;;;4996302;28;20175;-72
2023/01/01 14:47:26;;;;;;;6.65;2.10;;;;;;;;;;4988008;28;20817;-71
2023/01/01 14:49:52;;;;;;;8.18;2.00;;;;;;;;;;4984939;28;20187;-72
2023/01/01 14:52:22;;;;;;;7.82;2.33;;;;;;;;;;4983168;28;20212;-70